Time;durP1;ratioP1;P1;durP2;ratioP2;P2;SDS_P1;SDS_P2;PMS_P1;PMS_P2;Temp;Humidity;BMP_temperature;BMP_pressure;BME280_temperature;BME280_humidity;BME280_pressure;Samples;Min_cycle;Max_cycle;Signal;HPM_P1;HPM_P2
2021/10/19 00:03:38;;;;;;;14.73;7.95;;;9.90;95.70;;;;;;10121050;28;20017;-57
2021/10/19 00:08:29;;;;;;;15.70;9.05;;;9.80;95.80;;;;;;10120313;28;20103;-60
2021/10/19 00:13:19;;;;;;;16.10;9.55;;;9.80;95.80;;;;;;10116457;28;20033;-57
2021/10/19 00:18:10;;;;;;;15.05;7.50;;;9.80;95.70;;;;;;10111126;28;20091;-58
2021/10/19 00:23:00;;;;;;;15.52;6.75;;;9.60;95.80;;;;;;10108721;28;20028;-57
2021/10/19 00:27:51;;;;;;;12.07;6.60;;;9.60;95.90;;;;;;10124995;28;20060;-52
2021/10/19 00:32:42;;;;;;;13.13;7.32;;;9.50;96.00;;;;;;10123927;28;20032;-56
2021/10/19 00:37:33;;;;;;;14.88;7.75;;;9.60;95.90;;;;;;10118397;28;20032;-57
2021/10/19 00:42:24;;;;;;;18.70;8.68;;;9.60;95.80;;;;;;10096583;28;20491;-55
2021/10/19 00:47:19;;;;;;;16.05;7.00;;;9.70;95.90;;;;;;10115690;28;20041;-56
2021/10/19 00:52:10;;;;;;;13.88;7.18;;;9.60;95.70;;;;;;10103223;28;20049;-55
2021/10/19 00:57:01;;;;;;;16.20;7.93;;;9.70;95.70;;;;;;10120372;28;20028;-59
2021/10/19 01:01:52;;;;;;;16.45;8.10;;;9.70;95.70;;;;;;10121155;28;20044;-59
2021/10/19 01:06:42;;;;;;;16.95;7.78;;;9.60;95.70;;;;;;10119893;28;20233;-55
2021/10/19 01:11:33;;;;;;;15.65;7.05;;;9.70;95.70;;;;;;10102369;28;20115;-58
2021/10/19 01:16:24;;;;;;;14.00;8.85;;;9.60;95.90;;;;;;10118628;28;20028;-61
2021/10/19 01:21:14;;;;;;;16.52;7.72;;;9.70;95.80;;;;;;10120975;28;20072;-61
2021/10/19 01:26:08;;;;;;;12.02;6.78;;;9.70;95.70;;;;;;10119121;28;20017;-55
2021/10/19 01:31:00;;;;;;;13.07;6.57;;;9.80;95.60;;;;;;10114741;28;20037;-66
2021/10/19 01:35:52;;;;;;;13.68;7.45;;;9.60;95.90;;;;;;10112860;28;20037;-58
2021/10/19 01:40:43;;;;;;;14.77;7.68;;;9.50;95.90;;;;;;10112334;28;20032;-57
2021/10/19 01:45:34;;;;;;;15.55;7.47;;;9.60;95.90;;;;;;10119807;28;20024;-54
2021/10/19 01:50:24;;;;;;;13.38;7.93;;;9.60;95.80;;;;;;10116223;28;20414;-61
2021/10/19 01:55:15;;;;;;;12.80;7.97;;;9.80;95.80;;;;;;10121157;28;20545;-59
2021/10/19 02:00:08;;;;;;;16.83;8.45;;;9.80;95.80;;;;;;10112006;28;20043;-56
2021/10/19 02:04:59;;;;;;;15.18;7.75;;;9.80;95.80;;;;;;10122338;28;20039;-57
2021/10/19 02:09:50;;;;;;;12.65;6.32;;;9.70;95.70;;;;;;10121277;28;20288;-59
2021/10/19 02:14:41;;;;;;;13.85;6.30;;;9.70;95.70;;;;;;10118456;28;20017;-56
2021/10/19 02:19:31;;;;;;;11.98;7.57;;;9.80;95.80;;;;;;10118347;28;20093;-57
2021/10/19 02:24:22;;;;;;;12.10;7.10;;;9.70;95.80;;;;;;10120811;28;20484;-53
2021/10/19 02:29:14;;;;;;;11.75;6.03;;;9.60;95.90;;;;;;10107654;28;20028;-56
2021/10/19 02:34:05;;;;;;;12.05;6.28;;;9.70;95.90;;;;;;10114937;28;20060;-58
2021/10/19 02:38:56;;;;;;;15.95;7.22;;;9.80;95.70;;;;;;10109851;28;20071;-52
2021/10/19 02:43:47;;;;;;;14.88;6.35;;;9.60;95.80;;;;;;10116310;28;20127;-54
2021/10/19 02:48:37;;;;;;;10.30;5.97;;;9.60;96.00;;;;;;10120583;28;20039;-59
2021/10/19 02:53:28;;;;;;;13.32;7.13;;;9.70;96.00;;;;;;10119675;28;20016;-54
2021/10/19 02:58:18;;;;;;;11.70;6.57;;;9.80;95.90;;;;;;10126319;28;20079;-57
2021/10/19 03:03:09;;;;;;;12.05;6.40;;;9.80;95.80;;;;;;10128740;28;20033;-58
2021/10/19 03:08:00;;;;;;;14.35;6.28;;;9.90;95.80;;;;;;10117648;28;20134;-54
2021/10/19 03:12:50;;;;;;;12.13;7.03;;;9.80;95.80;;;;;;10096676;28;20044;-56
2021/10/19 03:17:41;;;;;;;11.32;7.05;;;9.80;95.80;;;;;;10122921;28;20097;-53
2021/10/19 03:22:32;;;;;;;10.48;5.88;;;9.80;95.70;;;;;;10122258;28;20025;-52
2021/10/19 03:27:22;;;;;;;11.52;5.88;;;9.80;95.80;;;;;;10099192;28;20040;-54
2021/10/19 03:32:13;;;;;;;12.48;6.03;;;9.80;95.80;;;;;;10122649;28;20036;-57
2021/10/19 03:37:05;;;;;;;9.70;6.05;;;9.90;95.80;;;;;;10117918;28;20564;-54
2021/10/19 03:41:55;;;;;;;10.85;6.30;;;9.90;95.70;;;;;;10101064;28;20045;-57
2021/10/19 03:46:46;;;;;;;10.55;5.82;;;9.90;95.80;;;;;;10129156;28;20580;-54
2021/10/19 03:51:37;;;;;;;11.50;6.15;;;9.80;95.80;;;;;;10118682;28;20043;-55
2021/10/19 03:56:27;;;;;;;9.35;5.30;;;10.00;95.80;;;;;;10127519;28;20538;-59
2021/10/19 04:01:18;;;;;;;13.05;6.13;;;10.00;95.70;;;;;;10123300;28;20546;-57
2021/10/19 04:06:11;;;;;;;11.30;6.57;;;10.10;95.70;;;;;;10118486;28;20360;-53
2021/10/19 04:11:02;;;;;;;11.25;6.57;;;9.90;95.70;;;;;;10117124;28;20055;-63
2021/10/19 04:15:53;;;;;;;13.93;6.18;;;9.90;95.90;;;;;;10114799;28;20463;-58
2021/10/19 04:20:43;;;;;;;12.25;6.70;;;9.90;95.80;;;;;;10118457;28;20048;-54
2021/10/19 04:25:34;;;;;;;14.93;6.68;;;9.80;95.90;;;;;;10108759;28;20032;-53
2021/10/19 04:30:25;;;;;;;10.38;6.00;;;9.80;95.90;;;;;;10120995;28;20037;-57
2021/10/19 04:35:15;;;;;;;12.80;6.97;;;9.90;95.80;;;;;;10123617;28;20463;-51
2021/10/19 04:40:07;;;;;;;12.90;7.22;;;9.90;95.70;;;;;;10103873;28;20116;-55
2021/10/19 04:44:57;;;;;;;13.55;7.80;;;9.90;95.80;;;;;;10126217;28;20078;-55
2021/10/19 04:49:48;;;;;;;11.23;6.50;;;9.90;95.80;;;;;;10121648;28;20029;-53
2021/10/19 04:54:38;;;;;;;12.18;6.68;;;10.00;95.90;;;;;;10121279;28;20012;-55
2021/10/19 04:59:29;;;;;;;10.98;6.53;;;10.00;95.80;;;;;;10092923;28;20052;-58
2021/10/19 05:04:20;;;;;;;10.35;6.15;;;10.10;95.80;;;;;;10112769;28;20012;-55
2021/10/19 05:09:10;;;;;;;14.93;5.90;;;10.10;95.70;;;;;;10117642;28;20112;-59
2021/10/19 05:14:02;;;;;;;11.43;6.47;;;10.10;95.80;;;;;;10125431;28;20017;-58
2021/10/19 05:18:52;;;;;;;12.20;6.53;;;10.00;95.80;;;;;;10120439;28;20047;-56
2021/10/19 05:23:43;;;;;;;12.60;6.35;;;10.10;95.90;;;;;;10111133;28;20009;-56
2021/10/19 05:28:34;;;;;;;14.90;7.43;;;10.00;95.90;;;;;;10121608;28;20032;-55
2021/10/19 05:33:25;;;;;;;11.80;6.50;;;10.20;95.90;;;;;;10115963;28;20044;-53
2021/10/19 05:38:15;;;;;;;11.95;7.20;;;10.20;95.80;;;;;;10116095;28;20071;-54
2021/10/19 05:43:06;;;;;;;11.85;6.10;;;10.20;95.80;;;;;;10094431;28;20518;-55
2021/10/19 05:47:57;;;;;;;15.63;7.57;;;10.40;95.80;;;;;;10120908;28;20258;-60
2021/10/19 05:52:47;;;;;;;13.63;6.95;;;10.30;95.80;;;;;;10111936;28;20281;-57
2021/10/19 05:57:41;;;;;;;12.15;6.57;;;10.30;96.00;;;;;;10114280;28;20115;-56
2021/10/19 06:02:31;;;;;;;13.75;7.75;;;10.40;95.80;;;;;;10120668;28;20025;-59
2021/10/19 06:07:22;;;;;;;9.52;6.65;;;10.30;95.80;;;;;;10114601;28;20021;-55
2021/10/19 06:12:13;;;;;;;11.50;6.38;;;10.30;96.00;;;;;;10118183;28;20029;-54
2021/10/19 06:17:04;;;;;;;17.27;7.50;;;10.30;95.90;;;;;;10108701;28;20032;-56
2021/10/19 06:21:54;;;;;;;13.45;6.93;;;10.50;96.00;;;;;;10105488;28;20048;-54
2021/10/19 06:26:45;;;;;;;13.05;7.32;;;10.50;95.80;;;;;;10113669;28;20528;-56
2021/10/19 06:31:37;;;;;;;14.55;8.10;;;10.50;96.00;;;;;;10122185;28;20028;-56
2021/10/19 06:36:27;;;;;;;15.27;7.72;;;10.40;95.90;;;;;;10122129;28;20654;-60
2021/10/19 06:41:18;;;;;;;15.25;8.38;;;10.50;96.00;;;;;;10115883;28;20052;-54
2021/10/19 06:46:10;;;;;;;13.88;8.13;;;10.50;95.90;;;;;;10121455;28;20025;-56
2021/10/19 06:51:00;;;;;;;14.35;8.48;;;10.60;96.00;;;;;;10124281;28;20296;-59
2021/10/19 06:55:51;;;;;;;17.83;9.02;;;10.60;96.00;;;;;;10124060;28;20060;-55
2021/10/19 07:00:42;;;;;;;14.25;7.65;;;10.70;95.90;;;;;;10126566;28;20102;-61
2021/10/19 07:05:33;;;;;;;16.50;8.18;;;10.80;95.80;;;;;;10122045;28;20090;-57
2021/10/19 07:10:23;;;;;;;17.95;8.27;;;10.90;95.80;;;;;;10121757;28;20037;-60
2021/10/19 07:15:15;;;;;;;12.48;7.95;;;10.90;95.90;;;;;;10120168;28;20580;-58
2021/10/19 07:20:07;;;;;;;10.45;6.60;;;10.90;96.10;;;;;;10125705;28;20035;-62
2021/10/19 07:24:59;;;;;;;11.88;6.65;;;11.00;96.10;;;;;;10121833;28;20432;-57
2021/10/19 07:29:49;;;;;;;11.02;6.65;;;11.10;96.00;;;;;;10108219;28;20024;-58
2021/10/19 07:34:40;;;;;;;12.38;7.60;;;11.20;96.00;;;;;;10119379;28;20040;-56
2021/10/19 07:39:31;;;;;;;11.50;6.57;;;11.30;95.90;;;;;;10102665;28;20089;-55
2021/10/19 07:44:23;;;;;;;9.57;6.18;;;11.40;95.80;;;;;;10119272;28;20055;-54
2021/10/19 07:49:13;;;;;;;9.90;6.10;;;11.60;95.80;;;;;;10113926;28;20077;-55
2021/10/19 07:54:04;;;;;;;11.30;5.78;;;11.60;95.80;;;;;;10117599;28;20021;-60
2021/10/19 07:58:55;;;;;;;12.52;6.60;;;11.80;95.80;;;;;;10114175;28;20090;-53
2021/10/19 08:03:46;;;;;;;9.02;6.32;;;11.90;95.80;;;;;;10117017;28;20434;-54
2021/10/19 08:08:38;;;;;;;10.50;5.35;;;12.00;95.80;;;;;;10116914;28;20044;-55
2021/10/19 08:13:28;;;;;;;9.98;6.00;;;12.10;95.80;;;;;;10116324;28;20475;-58
2021/10/19 08:18:19;;;;;;;11.30;6.15;;;12.20;95.80;;;;;;10114867;28;20233;-56
2021/10/19 08:23:10;;;;;;;8.63;5.00;;;12.30;95.80;;;;;;10119688;28;20021;-67
2021/10/19 08:28:01;;;;;;;8.73;4.97;;;12.40;95.70;;;;;;10114628;28;20104;-59
2021/10/19 08:32:52;;;;;;;7.00;4.35;;;12.40;95.80;;;;;;10113334;28;20145;-55
2021/10/19 08:37:43;;;;;;;8.80;4.30;;;12.50;95.80;;;;;;10113611;28;20029;-54
2021/10/19 08:42:42;;;;;;;7.78;5.18;;;12.60;96.00;;;;;;10115724;28;20406;-59
2021/10/19 08:47:33;;;;;;;9.02;5.70;;;12.60;95.70;;;;;;10117962;28;20391;-61
2021/10/19 08:52:24;;;;;;;9.70;5.68;;;12.70;95.70;;;;;;10110775;28;20037;-58
2021/10/19 08:57:16;;;;;;;10.13;5.85;;;12.70;95.60;;;;;;10111847;28;20025;-56
2021/10/19 09:02:07;;;;;;;9.90;5.53;;;12.80;95.60;;;;;;10114827;28;20364;-58
2021/10/19 09:06:58;;;;;;;8.05;5.15;;;12.90;95.60;;;;;;10111246;28;20028;-59
2021/10/19 09:11:50;;;;;;;6.95;4.88;;;13.00;95.60;;;;;;10099036;28;20031;-60
2021/10/19 09:16:52;;;;;;;9.75;4.57;;;13.10;95.50;;;;;;10096060;28;20060;-54
2021/10/19 09:21:55;;;;;;;6.97;4.88;;;13.10;95.50;;;;;;10111391;28;20631;-59
2021/10/19 09:26:49;;;;;;;7.25;4.38;;;13.20;95.50;;;;;;10114118;28;20479;-59
2021/10/19 09:31:40;;;;;;;10.45;4.95;;;13.40;95.40;;;;;;10111964;28;20025;-56
2021/10/19 09:36:33;;;;;;;7.15;4.20;;;13.50;95.40;;;;;;10114136;28;20067;-61
2021/10/19 09:41:25;;;;;;;8.60;5.05;;;13.70;95.30;;;;;;10113374;28;20105;-60
2021/10/19 09:46:16;;;;;;;9.07;4.95;;;13.80;95.20;;;;;;10110154;28;20505;-61
2021/10/19 09:51:06;;;;;;;7.25;4.72;;;13.90;95.20;;;;;;10114874;28;20078;-59
2021/10/19 09:55:58;;;;;;;9.10;5.75;;;13.90;95.00;;;;;;10113551;28;20142;-57
2021/10/19 10:00:50;;;;;;;8.13;4.47;;;13.80;95.00;;;;;;10112280;28;20093;-57
2021/10/19 10:05:42;;;;;;;7.32;4.63;;;13.90;95.00;;;;;;10110485;28;20422;-58
2021/10/19 10:10:32;;;;;;;8.55;5.97;;;13.90;94.80;;;;;;10111154;28;20029;-61
2021/10/19 10:15:26;;;;;;;9.02;5.28;;;14.00;94.80;;;;;;10121028;28;20502;-61
2021/10/19 10:20:18;;;;;;;7.93;4.70;;;14.10;94.60;;;;;;10112377;28;20045;-60
2021/10/19 10:25:20;;;;;;;5.75;4.68;;;14.20;94.60;;;;;;10113330;28;20121;-60
2021/10/19 10:30:24;;;;;;;8.10;4.95;;;14.40;94.30;;;;;;10116087;28;20324;-57
2021/10/19 10:35:17;;;;;;;8.27;5.40;;;14.70;94.10;;;;;;10118047;28;20040;-56
2021/10/19 10:40:10;;;;;;;12.20;6.07;;;14.80;94.00;;;;;;10115294;28;20040;-62
2021/10/19 10:45:02;;;;;;;9.02;5.78;;;14.80;94.00;;;;;;10110406;28;20043;-58
2021/10/19 10:49:53;;;;;;;7.25;5.03;;;14.90;93.90;;;;;;10116014;28;20137;-64
2021/10/19 10:55:13;;;;;;;9.07;5.05;;;15.10;93.70;;;;;;10113777;28;20553;-57
2021/10/19 11:00:05;;;;;;;6.22;4.32;;;15.00;93.60;;;;;;10117764;28;20044;-59
2021/10/19 11:04:57;;;;;;;7.65;5.28;;;15.10;93.60;;;;;;10115959;28;20193;-60
2021/10/19 11:09:48;;;;;;;8.38;4.93;;;15.20;93.30;;;;;;10103110;28;20037;-56
2021/10/19 11:14:39;;;;;;;6.28;4.50;;;15.30;93.20;;;;;;10118537;28;20099;-60
2021/10/19 11:19:33;;;;;;;6.65;4.03;;;15.40;93.10;;;;;;10115086;28;20037;-58
2021/10/19 11:24:27;;;;;;;7.95;4.60;;;15.40;92.90;;;;;;10127037;28;20600;-61
2021/10/19 11:29:19;;;;;;;9.50;4.50;;;15.50;92.80;;;;;;10112990;28;20020;-59
2021/10/19 11:34:10;;;;;;;8.00;4.70;;;15.60;92.60;;;;;;10105365;28;20752;-58
2021/10/19 11:39:11;;;;;;;7.70;4.60;;;15.80;92.50;;;;;;10131730;28;20144;-64
2021/10/19 11:44:04;;;;;;;10.20;5.47;;;16.00;92.20;;;;;;10123429;28;20070;-60
2021/10/19 11:48:59;;;;;;;10.60;6.70;;;16.30;91.90;;;;;;10116617;28;20553;-56
2021/10/19 11:53:54;;;;;;;9.27;5.68;;;16.60;91.90;;;;;;10109522;28;20376;-60
2021/10/19 11:59:06;;;;;;;8.05;4.43;;;17.00;91.40;;;;;;10121338;28;20426;-55
2021/10/19 12:03:59;;;;;;;5.28;3.97;;;17.30;91.00;;;;;;10118420;28;20119;-59
2021/10/19 12:08:50;;;;;;;6.38;3.78;;;17.70;90.90;;;;;;10124717;28;20025;-58
2021/10/19 12:13:42;;;;;;;4.75;3.58;;;18.10;90.60;;;;;;10122167;28;20028;-58
2021/10/19 12:18:44;;;;;;;6.13;3.75;;;18.00;90.40;;;;;;10125419;28;20418;-59
2021/10/19 12:23:35;;;;;;;5.35;3.80;;;17.80;90.40;;;;;;10114813;28;20267;-57
2021/10/19 12:28:28;;;;;;;7.43;4.25;;;17.80;90.40;;;;;;10119785;28;20278;-58
2021/10/19 12:33:22;;;;;;;6.50;3.70;;;18.00;90.10;;;;;;10110442;28;20065;-59
2021/10/19 12:38:13;;;;;;;5.85;3.35;;;18.10;90.00;;;;;;10121568;28;20071;-57
2021/10/19 12:43:03;;;;;;;5.13;3.33;;;18.00;90.00;;;;;;10093159;28;20078;-59
2021/10/19 12:48:04;;;;;;;5.00;3.50;;;17.80;89.80;;;;;;10115345;28;20024;-55
2021/10/19 12:52:55;;;;;;;5.95;3.22;;;17.70;89.80;;;;;;10114214;28;20032;-57
2021/10/19 12:57:46;;;;;;;4.45;3.13;;;17.60;89.90;;;;;;10115187;28;20040;-56
2021/10/19 13:02:36;;;;;;;6.75;3.35;;;17.50;89.70;;;;;;10115073;28;20044;-53
2021/10/19 13:07:27;;;;;;;7.88;3.45;;;17.30;89.70;;;;;;10117528;28;20028;-59
2021/10/19 13:12:18;;;;;;;6.85;3.47;;;17.30;89.50;;;;;;10097592;28;20038;-57
2021/10/19 13:17:08;;;;;;;5.10;2.80;;;17.30;89.40;;;;;;10113806;28;20025;-54
2021/10/19 13:21:59;;;;;;;6.53;3.10;;;17.40;89.40;;;;;;10113337;28;20029;-62
2021/10/19 13:26:50;;;;;;;4.38;3.20;;;17.50;89.20;;;;;;10109808;28;20021;-57
2021/10/19 13:31:41;;;;;;;3.70;2.55;;;17.50;89.10;;;;;;10113051;28;20406;-55
2021/10/19 13:36:32;;;;;;;5.18;3.30;;;17.50;89.30;;;;;;10115782;28;20041;-53
2021/10/19 13:41:22;;;;;;;4.60;2.85;;;17.50;89.10;;;;;;10112801;28;20036;-56
2021/10/19 13:46:13;;;;;;;4.80;2.95;;;17.60;89.00;;;;;;10109560;28;20475;-53
2021/10/19 13:51:04;;;;;;;5.45;3.13;;;17.90;88.60;;;;;;10117991;28;20047;-62
2021/10/19 13:55:55;;;;;;;4.93;3.13;;;18.80;88.00;;;;;;10110871;28;20033;-61
2021/10/19 14:00:45;;;;;;;6.53;3.47;;;21.80;84.90;;;;;;10109627;28;20037;-60
2021/10/19 14:05:37;;;;;;;4.40;2.85;;;24.00;81.80;;;;;;10114539;28;20031;-60
2021/10/19 14:10:28;;;;;;;4.15;2.90;;;26.40;76.90;;;;;;10109854;28;20059;-63
2021/10/19 14:15:18;;;;;;;3.35;2.50;;;27.50;73.90;;;;;;10109850;28;20399;-60
2021/10/19 14:20:09;;;;;;;4.85;2.60;;;28.10;71.30;;;;;;10114225;28;20378;-58
2021/10/19 14:25:00;;;;;;;4.82;2.50;;;29.40;68.10;;;;;;10110123;28;20112;-59
2021/10/19 14:29:52;;;;;;;3.30;2.08;;;30.10;65.20;;;;;;10090297;28;20432;-59
2021/10/19 14:34:43;;;;;;;3.72;2.92;;;28.70;64.90;;;;;;10112932;28;20503;-58
2021/10/19 14:39:34;;;;;;;3.88;2.58;;;25.60;69.20;;;;;;10113748;28;20048;-59
2021/10/19 14:44:25;;;;;;;3.95;2.38;;;23.90;71.30;;;;;;10107351;28;20020;-58
2021/10/19 14:49:17;;;;;;;2.90;2.38;;;22.40;73.00;;;;;;10113143;28;20111;-61
2021/10/19 14:54:09;;;;;;;3.97;2.38;;;21.30;74.00;;;;;;10122547;28;20028;-58
2021/10/19 14:59:00;;;;;;;2.67;2.03;;;20.60;74.90;;;;;;10117937;28;20493;-59
2021/10/19 15:03:51;;;;;;;4.10;2.17;;;20.20;74.70;;;;;;10118915;28;20039;-61
2021/10/19 15:08:41;;;;;;;3.13;2.25;;;20.00;74.50;;;;;;10119131;28;20035;-58
2021/10/19 15:13:32;;;;;;;4.10;2.65;;;19.90;74.40;;;;;;10119568;28;20025;-59
2021/10/19 15:18:23;;;;;;;5.82;2.33;;;19.80;74.30;;;;;;10100340;28;20044;-57
2021/10/19 15:23:14;;;;;;;3.50;2.45;;;19.60;74.50;;;;;;10118619;28;20426;-61
2021/10/19 15:28:05;;;;;;;3.35;2.17;;;19.50;74.50;;;;;;10120695;28;20114;-63
2021/10/19 15:32:55;;;;;;;5.97;2.20;;;19.50;74.60;;;;;;10117774;28;20045;-54
2021/10/19 15:37:46;;;;;;;3.38;2.55;;;19.70;74.20;;;;;;10120124;28;20040;-52
2021/10/19 15:42:37;;;;;;;3.50;2.25;;;19.60;74.30;;;;;;10117843;28;20028;-57
2021/10/19 15:47:28;;;;;;;3.00;2.10;;;19.40;74.70;;;;;;10103144;28;20028;-57
2021/10/19 15:52:19;;;;;;;5.03;2.50;;;19.20;75.00;;;;;;10120472;28;20539;-57
2021/10/19 15:57:10;;;;;;;3.15;2.25;;;19.10;75.20;;;;;;10117151;28;20402;-62
2021/10/19 16:02:02;;;;;;;4.82;2.33;;;19.00;75.30;;;;;;10117775;28;20040;-58
2021/10/19 16:06:53;;;;;;;4.13;2.15;;;18.80;75.50;;;;;;10112451;28;20025;-54
2021/10/19 16:11:44;;;;;;;3.80;2.17;;;18.60;75.70;;;;;;10114877;28;20059;-58
2021/10/19 16:16:35;;;;;;;3.42;2.47;;;18.60;75.80;;;;;;10115337;28;20032;-59
2021/10/19 16:21:25;;;;;;;6.55;2.47;;;18.40;75.80;;;;;;10098006;28;20043;-57
2021/10/19 16:26:19;;;;;;;6.13;2.40;;;18.30;75.80;;;;;;10113746;28;20105;-53
2021/10/19 16:31:10;;;;;;;4.53;2.05;;;18.20;76.00;;;;;;10092275;28;20276;-60
2021/10/19 16:36:03;;;;;;;2.50;1.85;;;18.10;76.00;;;;;;10114629;28;20808;-59
2021/10/19 16:40:53;;;;;;;4.70;2.53;;;18.10;76.00;;;;;;10119507;28;20029;-64
2021/10/19 16:45:44;;;;;;;3.65;2.22;;;18.00;76.10;;;;;;10117454;28;20479;-59
2021/10/19 16:50:35;;;;;;;4.88;2.50;;;17.90;76.30;;;;;;10094675;28;20029;-61
2021/10/19 16:55:26;;;;;;;4.57;2.10;;;17.90;76.30;;;;;;10097568;28;20034;-63
2021/10/19 17:00:16;;;;;;;6.68;2.28;;;17.80;76.30;;;;;;10112951;28;20058;-66
2021/10/19 17:05:07;;;;;;;3.78;2.20;;;17.80;76.30;;;;;;10126137;28;20032;-62
2021/10/19 17:09:58;;;;;;;3.22;2.33;;;17.70;76.30;;;;;;10109250;28;20070;-57
2021/10/19 17:14:49;;;;;;;2.50;2.20;;;17.60;76.30;;;;;;10119630;28;20449;-57
2021/10/19 17:19:41;;;;;;;3.30;2.17;;;17.60;76.20;;;;;;10109563;28;20048;-57
2021/10/19 17:24:32;;;;;;;2.83;2.03;;;17.60;76.20;;;;;;10095644;28;20020;-64
2021/10/19 17:29:23;;;;;;;4.28;2.65;;;17.50;76.10;;;;;;10124356;28;20525;-60
2021/10/19 17:34:14;;;;;;;2.92;2.45;;;17.50;76.20;;;;;;10116920;28;20052;-65
2021/10/19 17:39:04;;;;;;;4.50;2.47;;;17.40;76.40;;;;;;10114987;28;20098;-61
2021/10/19 17:43:55;;;;;;;3.33;2.13;;;17.30;76.40;;;;;;10118462;28;20093;-60
2021/10/19 17:48:45;;;;;;;3.38;1.85;;;17.30;76.40;;;;;;10112199;28;20185;-62
2021/10/19 17:53:37;;;;;;;3.20;2.25;;;17.20;76.40;;;;;;10112211;28;20133;-59
2021/10/19 17:58:28;;;;;;;3.33;2.08;;;17.20;76.40;;;;;;10120504;28;20220;-66
2021/10/19 18:03:19;;;;;;;3.15;2.28;;;17.10;76.40;;;;;;10109102;28;20028;-57
2021/10/19 18:08:10;;;;;;;7.40;2.45;;;17.10;76.50;;;;;;10117289;28;20013;-60
2021/10/19 18:13:02;;;;;;;4.63;2.53;;;17.00;76.60;;;;;;10117565;28;20122;-55
2021/10/19 18:17:53;;;;;;;4.53;2.20;;;16.90;76.70;;;;;;10107922;28;20029;-57
2021/10/19 18:22:47;;;;;;;3.72;2.13;;;16.80;76.70;;;;;;10121497;28;20030;-56
2021/10/19 18:27:37;;;;;;;3.85;2.60;;;16.80;76.80;;;;;;10119445;28;20112;-58
2021/10/19 18:32:28;;;;;;;5.35;2.33;;;16.70;76.90;;;;;;10116216;28;20609;-56
2021/10/19 18:37:19;;;;;;;4.50;2.00;;;16.70;77.00;;;;;;10095435;28;20025;-54
2021/10/19 18:42:10;;;;;;;3.83;2.55;;;16.70;76.90;;;;;;10120155;28;20035;-62
2021/10/19 18:47:00;;;;;;;5.70;2.65;;;16.70;77.50;;;;;;10120464;28;20032;-53
2021/10/19 18:51:52;;;;;;;5.45;3.03;;;16.70;76.90;;;;;;10117529;28;20298;-56
2021/10/19 18:56:42;;;;;;;3.55;2.20;;;16.70;76.70;;;;;;10117939;28;20025;-58
2021/10/19 19:01:35;;;;;;;4.50;2.53;;;16.70;76.80;;;;;;10127077;28;20522;-63
2021/10/19 19:06:26;;;;;;;4.38;2.45;;;16.70;76.80;;;;;;10121239;28;20458;-58
2021/10/19 19:11:17;;;;;;;5.25;2.45;;;16.70;76.90;;;;;;10113505;28;20037;-53
2021/10/19 19:16:08;;;;;;;4.47;2.50;;;16.70;76.90;;;;;;10113586;28;20041;-53
2021/10/19 19:21:00;;;;;;;3.55;2.60;;;16.70;77.00;;;;;;10115556;28;20041;-61
2021/10/19 19:25:50;;;;;;;5.90;2.72;;;16.70;77.00;;;;;;10112605;28;20165;-58
2021/10/19 19:30:43;;;;;;;4.63;2.20;;;16.70;77.20;;;;;;10116317;28;20149;-56
2021/10/19 19:35:34;;;;;;;5.93;2.47;;;16.70;77.40;;;;;;10114519;28;20083;-54
2021/10/19 19:40:26;;;;;;;4.15;2.53;;;16.70;77.50;;;;;;10118052;28;20043;-60
2021/10/19 19:45:17;;;;;;;8.05;3.45;;;16.70;77.50;;;;;;10121442;28;20024;-58
2021/10/19 19:50:12;;;;;;;5.78;2.97;;;16.70;77.60;;;;;;10124845;28;20597;-50
2021/10/19 19:55:03;;;;;;;4.32;2.85;;;16.80;77.70;;;;;;10119982;28;20521;-63
2021/10/19 19:59:54;;;;;;;4.63;2.65;;;16.70;77.70;;;;;;10110208;28;20499;-54
2021/10/19 20:04:45;;;;;;;4.20;2.55;;;16.70;77.80;;;;;;10124320;28;20249;-55
2021/10/19 20:09:36;;;;;;;3.95;2.28;;;16.60;78.00;;;;;;10126311;28;20044;-58
2021/10/19 20:14:28;;;;;;;5.25;2.95;;;16.50;78.40;;;;;;10119508;28;20548;-61
2021/10/19 20:19:19;;;;;;;5.45;3.33;;;16.50;78.60;;;;;;10118949;28;20037;-52
2021/10/19 20:24:10;;;;;;;4.72;3.20;;;16.40;79.40;;;;;;10125945;28;20028;-65
2021/10/19 20:29:01;;;;;;;4.43;3.03;;;16.30;79.00;;;;;;10114032;28;20067;-65
2021/10/19 20:33:52;;;;;;;7.63;3.40;;;16.30;79.30;;;;;;10140949;28;20244;-67
2021/10/19 20:38:43;;;;;;;6.65;3.60;;;16.20;79.50;;;;;;10133018;28;20037;-61
2021/10/19 20:43:34;;;;;;;5.82;3.08;;;16.10;79.60;;;;;;10132025;28;20099;-66
2021/10/19 20:48:25;;;;;;;5.40;3.70;;;16.10;79.80;;;;;;10137719;28;20028;-64
2021/10/19 20:53:16;;;;;;;5.93;3.40;;;16.00;80.00;;;;;;10128202;28;20296;-61
2021/10/19 20:58:07;;;;;;;4.25;2.70;;;16.00;80.20;;;;;;10140014;28;20056;-56
2021/10/19 21:02:58;;;;;;;7.15;3.13;;;15.90;80.40;;;;;;10112073;28;20044;-54
2021/10/19 21:07:49;;;;;;;8.85;3.25;;;15.90;80.60;;;;;;10109182;28;20446;-61
2021/10/19 21:12:40;;;;;;;5.68;2.75;;;15.90;80.80;;;;;;10119393;28;20070;-57
2021/10/19 21:17:31;;;;;;;5.03;3.30;;;15.80;81.80;;;;;;10124212;28;20044;-57
2021/10/19 21:22:22;;;;;;;4.90;3.17;;;15.80;81.30;;;;;;10114267;28;20045;-59
2021/10/19 21:27:13;;;;;;;8.27;4.03;;;15.80;81.50;;;;;;10123531;28;20024;-53
2021/10/19 21:32:03;;;;;;;5.40;3.65;;;15.70;81.60;;;;;;10111999;28;20036;-54
2021/10/19 21:36:54;;;;;;;5.13;3.67;;;15.70;82.00;;;;;;10123384;28;20032;-57
2021/10/19 21:41:45;;;;;;;6.75;3.88;;;15.60;82.10;;;;;;10113256;28;20418;-54
2021/10/19 21:46:36;;;;;;;6.47;3.35;;;15.60;82.20;;;;;;10123441;28;20021;-51
2021/10/19 21:51:27;;;;;;;4.47;3.20;;;15.60;82.50;;;;;;10103506;28;20037;-54
2021/10/19 21:56:18;;;;;;;4.20;3.00;;;15.50;82.80;;;;;;10111577;28;20491;-52
2021/10/19 22:01:09;;;;;;;5.40;2.70;;;15.40;83.50;;;;;;10105015;28;20131;-53
2021/10/19 22:06:00;;;;;;;6.82;3.20;;;15.40;83.00;;;;;;10125451;28;20627;-53
2021/10/19 22:10:55;;;;;;;6.05;3.17;;;15.40;83.20;;;;;;10122330;28;20104;-57
2021/10/19 22:15:46;;;;;;;5.80;3.65;;;15.30;83.20;;;;;;10120607;28;20024;-54
2021/10/19 22:20:36;;;;;;;5.72;3.65;;;15.30;83.30;;;;;;10112046;28;20037;-56
2021/10/19 22:30:37;;;;;;;6.10;3.70;;;15.20;83.60;;;;;;10109987;28;20167;-53
2021/10/19 22:35:27;;;;;;;6.35;2.80;;;15.10;83.80;;;;;;10102623;28;20098;-51
2021/10/19 22:40:18;;;;;;;6.90;3.53;;;15.00;84.20;;;;;;10121403;28;20417;-56
2021/10/19 22:45:10;;;;;;;8.93;3.72;;;15.00;84.30;;;;;;10116575;28;20031;-57
2021/10/19 22:50:00;;;;;;;4.70;2.78;;;15.00;84.50;;;;;;10117478;28;20557;-56
2021/10/19 22:54:51;;;;;;;5.90;3.28;;;15.00;84.60;;;;;;10115288;28;20154;-54
2021/10/19 22:59:42;;;;;;;5.53;3.47;;;15.00;84.70;;;;;;10102985;28;20626;-53
2021/10/19 23:04:32;;;;;;;4.85;3.47;;;14.90;84.90;;;;;;10120040;28;20020;-56
2021/10/19 23:09:23;;;;;;;6.28;3.10;;;14.90;85.00;;;;;;10118233;28;20056;-61
2021/10/19 23:14:14;;;;;;;7.45;3.78;;;14.80;84.90;;;;;;10120758;28;20168;-54
2021/10/19 23:19:04;;;;;;;6.07;3.90;;;14.80;85.10;;;;;;10124189;28;20037;-54
2021/10/19 23:23:55;;;;;;;4.22;3.03;;;14.70;85.20;;;;;;10124509;28;20056;-52
2021/10/19 23:28:46;;;;;;;6.78;3.70;;;14.70;85.40;;;;;;10116979;28;20025;-55
2021/10/19 23:33:37;;;;;;;7.10;3.10;;;14.60;85.40;;;;;;10129260;28;20040;-63
2021/10/19 23:38:27;;;;;;;6.47;3.05;;;14.50;85.80;;;;;;10125281;28;20115;-64
2021/10/19 23:43:18;;;;;;;5.18;3.28;;;14.50;85.90;;;;;;10126107;28;20585;-56
2021/10/19 23:48:10;;;;;;;5.60;3.28;;;14.50;85.80;;;;;;10115966;28;20051;-59
2021/10/19 23:53:01;;;;;;;8.25;3.55;;;14.50;85.90;;;;;;10125242;28;20031;-53
2021/10/19 23:57:51;;;;;;;3.83;2.83;;;14.50;86.00;;;;;;10114907;28;20120;-52
